createdAt,value
2018-02-06T00:00:11.128Z,9.25
2018-02-06T00:01:17.780Z,8.82
2018-02-06T00:02:23.487Z,10.50
2018-02-06T00:03:29.188Z,9.70
2018-02-06T00:04:34.890Z,8.18
2018-02-06T00:05:41.389Z,10.07
2018-02-06T00:06:47.083Z,9.88
2018-02-06T00:07:53.561Z,9.57
2018-02-06T00:08:59.425Z,10.90
2018-02-06T00:10:05.138Z,10.82
2018-02-06T00:11:11.625Z,9.68
2018-02-06T00:12:17.328Z,12.88
2018-02-06T00:13:23.808Z,10.45
2018-02-06T00:14:29.520Z,8.20
2018-02-06T00:15:35.992Z,11.05
2018-02-06T00:16:42.499Z,12.00
2018-02-06T00:17:48.207Z,9.85
2018-02-06T00:18:53.912Z,12.43
2018-02-06T00:20:00.384Z,11.20
2018-02-06T00:21:06.854Z,10.02
2018-02-06T00:22:16.050Z,7.25
2018-02-06T00:23:21.752Z,8.45
2018-02-06T00:24:27.463Z,10.90
2018-02-06T00:25:33.179Z,11.40
2018-02-06T00:26:40.020Z,12.05
2018-02-06T00:27:45.739Z,9.90
2018-02-06T00:28:51.460Z,14.30
2018-02-06T00:29:57.221Z,10.13
2018-02-06T00:31:03.862Z,13.13
2018-02-06T00:32:09.573Z,10.63
2018-02-06T00:33:16.083Z,11.77
2018-02-06T00:34:21.789Z,10.63
2018-02-06T00:35:27.489Z,11.32
2018-02-06T00:36:33.201Z,12.50
2018-02-06T00:37:38.924Z,10.05
2018-02-06T00:38:44.643Z,9.75
2018-02-06T00:39:51.119Z,11.68
2018-02-06T00:40:56.832Z,11.45
2018-02-06T00:42:03.316Z,12.10
2018-02-06T00:43:09.024Z,8.30
2018-02-06T00:44:14.770Z,9.13
2018-02-06T00:45:21.235Z,9.45
2018-02-06T00:46:27.711Z,10.98
2018-02-06T00:47:33.423Z,10.43
2018-02-06T00:48:39.884Z,8.48
2018-02-06T00:49:45.616Z,8.80
2018-02-06T00:50:51.327Z,10.40
2018-02-06T00:51:57.056Z,10.68
2018-02-06T00:53:02.748Z,9.93
2018-02-06T00:54:09.229Z,10.38
2018-02-06T00:55:14.965Z,10.27
2018-02-06T00:56:20.677Z,10.32
2018-02-06T00:57:26.396Z,10.57
2018-02-06T00:58:32.107Z,7.05
2018-02-06T00:59:37.811Z,8.05
2018-02-06T01:00:44.300Z,7.97
2018-02-06T01:01:50.008Z,8.98
2018-02-06T01:02:55.707Z,10.18
2018-02-06T01:04:01.481Z,8.98
2018-02-06T01:05:07.187Z,9.75
2018-02-06T01:06:12.920Z,10.40
2018-02-06T01:07:18.628Z,9.52
2018-02-06T01:08:24.344Z,11.48
2018-02-06T01:09:30.065Z,10.55
2018-02-06T01:10:35.780Z,11.90
2018-02-06T01:11:41.512Z,11.00
2018-02-06T01:12:47.224Z,9.65
2018-02-06T01:13:53.693Z,9.95
2018-02-06T01:14:59.400Z,10.77
2018-02-06T01:16:05.108Z,8.27
2018-02-06T01:17:11.052Z,10.10
2018-02-06T01:18:16.769Z,11.93
2018-02-06T01:19:22.476Z,11.25
2018-02-06T01:20:28.956Z,11.30
2018-02-06T01:21:34.651Z,7.87
2018-02-06T01:22:41.167Z,11.52
2018-02-06T01:23:47.132Z,9.55
2018-02-06T01:24:52.855Z,10.45
2018-02-06T01:25:58.303Z,9.52
2018-02-06T01:27:04.019Z,11.38
2018-02-06T01:28:09.797Z,14.20
2018-02-06T01:29:15.515Z,12.70
2018-02-06T01:30:21.216Z,9.55
2018-02-06T01:31:27.702Z,12.63
2018-02-06T01:32:33.408Z,10.55
2018-02-06T01:33:39.142Z,10.35
2018-02-06T01:34:44.851Z,13.45
2018-02-06T01:35:50.577Z,9.88
2018-02-06T01:36:56.295Z,19.42
2018-02-06T01:38:02.755Z,9.80
2018-02-06T01:39:08.488Z,12.02
2018-02-06T01:40:14.964Z,12.55
2018-02-06T01:41:20.669Z,12.70
2018-02-06T01:42:27.142Z,13.30
2018-02-06T01:43:33.615Z,16.08
2018-02-06T01:44:39.559Z,13.98
2018-02-06T01:45:45.271Z,17.42
2018-02-06T01:46:51.752Z,15.45
2018-02-06T01:47:58.400Z,17.20
2018-02-06T01:49:04.313Z,11.43
2018-02-06T01:50:10.056Z,15.43
2018-02-06T01:51:15.771Z,12.23
2018-02-06T01:52:21.469Z,13.38
2018-02-06T01:53:27.949Z,9.10
2018-02-06T01:54:33.660Z,10.45
2018-02-06T01:55:39.391Z,13.20
2018-02-06T01:56:45.105Z,10.05
2018-02-06T01:57:50.819Z,10.02
2018-02-06T01:58:56.532Z,12.52
2018-02-06T02:00:03.020Z,10.52
2018-02-06T02:01:08.792Z,11.60
2018-02-06T02:02:14.514Z,14.70
2018-02-06T02:03:20.224Z,10.38
2018-02-06T02:04:26.702Z,13.23
2018-02-06T02:05:32.419Z,17.23
2018-02-06T02:06:38.924Z,9.95
2018-02-06T02:07:44.625Z,9.98
2018-02-06T02:08:51.107Z,20.73
2018-02-06T02:09:56.829Z,18.85
2018-02-06T02:11:02.535Z,12.68
2018-02-06T02:12:08.272Z,14.52
2018-02-06T02:13:13.987Z,11.07
2018-02-06T02:14:19.695Z,14.90
2018-02-06T02:15:25.410Z,11.60
2018-02-06T02:16:31.894Z,10.95
2018-02-06T02:17:37.630Z,12.60
2018-02-06T02:18:43.335Z,15.25
2018-02-06T02:19:49.050Z,12.75
2018-02-06T02:20:54.762Z,15.48
2018-02-06T02:22:00.472Z,13.85
2018-02-06T02:23:06.207Z,14.02
2018-02-06T02:24:11.928Z,12.57
2018-02-06T02:25:17.692Z,18.05
2018-02-06T02:26:24.188Z,17.60
2018-02-06T02:27:29.880Z,12.90
2018-02-06T02:28:35.628Z,13.65
2018-02-06T02:29:41.348Z,13.77
2018-02-06T02:30:47.052Z,11.98
2018-02-06T02:31:52.768Z,14.02
2018-02-06T02:32:59.244Z,14.87
2018-02-06T02:34:04.979Z,12.30
2018-02-06T02:35:10.696Z,16.58
2018-02-06T02:36:17.175Z,10.02
2018-02-06T02:37:22.885Z,13.38
2018-02-06T02:38:28.612Z,12.15
2018-02-06T02:39:34.354Z,14.50
2018-02-06T02:40:40.069Z,15.70
2018-02-06T04:39:22.297Z,18.12
2018-02-06T04:40:28.042Z,16.85
2018-02-06T04:41:33.759Z,20.62
2018-02-06T04:42:40.336Z,16.17
2018-02-06T04:43:46.054Z,16.55
2018-02-06T04:44:52.749Z,17.12
2018-02-06T04:45:58.495Z,20.37
2018-02-06T04:47:04.199Z,19.40
2018-02-06T04:48:10.669Z,16.42
2018-02-06T04:49:16.396Z,18.45
2018-02-06T04:50:22.884Z,22.52
2018-02-06T04:51:28.631Z,15.57
2018-02-06T04:52:34.355Z,16.90
2018-02-06T04:53:40.084Z,19.60
2018-02-06T04:54:46.563Z,18.52
2018-02-06T04:55:52.291Z,18.27
2018-02-06T04:56:58.367Z,16.58
2018-02-06T04:58:04.848Z,14.65
2018-02-06T04:59:10.572Z,19.65
2018-02-06T05:00:16.299Z,18.35
2018-02-06T05:01:22.018Z,15.15
2018-02-06T05:02:28.531Z,15.40
2018-02-06T05:03:34.254Z,18.77
2018-02-06T05:04:39.977Z,19.83
2018-02-06T05:05:45.695Z,18.37
2018-02-06T05:06:52.183Z,18.83
2018-02-06T05:07:57.932Z,19.15
2018-02-06T05:09:03.416Z,19.95
2018-02-06T05:10:09.900Z,16.17
2018-02-06T05:11:15.620Z,19.55
2018-02-06T05:12:22.104Z,17.40
2018-02-06T05:13:27.853Z,20.17
2018-02-06T05:14:33.888Z,20.30
2018-02-06T05:15:39.639Z,20.70
2018-02-06T05:16:45.365Z,18.45
2018-02-06T05:17:51.090Z,19.70
2018-02-06T05:18:57.601Z,17.87
2018-02-06T05:20:03.391Z,15.48
2018-02-06T05:21:09.891Z,16.83
2018-02-06T05:22:15.608Z,17.37
2018-02-06T05:23:21.329Z,21.40
2018-02-06T05:24:27.839Z,17.58
2018-02-06T05:25:33.555Z,17.77
2018-02-06T05:26:39.288Z,19.65
2018-02-06T05:27:45.549Z,21.67
2018-02-06T05:28:51.264Z,18.62
2018-02-06T05:29:57.783Z,24.77
2018-02-06T05:31:03.515Z,19.02
2018-02-06T05:32:09.244Z,20.88
2018-02-06T05:33:14.952Z,19.77
2018-02-06T05:34:21.251Z,19.15
2018-02-06T05:35:27.207Z,18.70
2018-02-06T05:36:32.923Z,15.57
2018-02-06T05:37:38.884Z,19.27
2018-02-06T05:38:44.625Z,19.65
2018-02-06T05:39:50.019Z,24.67
2018-02-06T05:40:55.777Z,23.45
2018-02-06T05:42:01.500Z,20.27
2018-02-06T05:43:07.223Z,19.75
2018-02-06T05:44:12.953Z,15.93
2018-02-06T05:45:18.676Z,20.67
2018-02-06T05:46:24.419Z,19.90
2018-02-06T05:47:30.152Z,16.52
2018-02-06T05:48:35.862Z,16.80
2018-02-06T05:49:41.610Z,18.90
2018-02-06T05:50:47.318Z,18.55
2018-02-06T05:51:53.836Z,20.05
2018-02-06T05:52:59.560Z,23.33
2018-02-06T05:54:05.295Z,23.77
2018-02-06T05:55:11.011Z,23.17
2018-02-06T05:56:16.737Z,20.70
2018-02-06T05:57:23.256Z,24.20
2018-02-06T05:58:28.971Z,20.70
2018-02-06T05:59:34.701Z,20.52
2018-02-06T06:00:40.422Z,21.77
2018-02-06T06:01:46.908Z,26.33
2018-02-06T06:02:52.672Z,21.70
2018-02-06T06:03:58.426Z,19.65
2018-02-06T06:05:04.135Z,26.77
2018-02-06T06:06:09.915Z,19.00
2018-02-06T06:07:15.670Z,25.92
2018-02-06T06:08:22.208Z,18.33
2018-02-06T06:09:27.962Z,22.00
2018-02-06T06:10:33.692Z,23.58
2018-02-06T06:11:39.428Z,22.15
2018-02-06T06:12:45.157Z,25.35
2018-02-06T06:13:50.904Z,21.65
2018-02-06T06:14:56.620Z,26.27
2018-02-06T06:16:02.364Z,19.90
2018-02-06T06:17:08.080Z,25.45
2018-02-06T06:18:14.564Z,22.70
2018-02-06T06:19:21.096Z,25.30
2018-02-06T06:20:26.832Z,18.42
2018-02-06T06:21:33.323Z,24.70
2018-02-06T06:22:39.058Z,20.92
2018-02-06T06:23:44.799Z,18.35
2018-02-06T06:24:50.552Z,20.25
2018-02-06T06:25:56.281Z,16.45
2018-02-06T06:27:02.006Z,22.77
2018-02-06T06:28:07.744Z,21.37
2018-02-06T06:29:13.481Z,24.02
2018-02-06T06:30:20.028Z,23.12
2018-02-06T06:31:25.765Z,21.35
2018-02-06T06:32:31.504Z,23.62
2018-02-06T06:33:38.016Z,23.98
2018-02-06T06:34:43.735Z,24.77
2018-02-06T06:35:49.306Z,21.90
2018-02-06T06:36:55.042Z,24.52
2018-02-06T06:38:00.776Z,23.38
2018-02-06T06:39:05.621Z,23.30
2018-02-06T06:40:11.338Z,20.90
2018-02-06T06:41:17.102Z,20.52
2018-02-06T06:42:23.036Z,24.17
2018-02-06T06:43:28.759Z,21.48
2018-02-06T06:44:34.284Z,22.42
2018-02-06T06:45:40.015Z,22.30
2018-02-06T06:46:45.523Z,22.65
2018-02-06T06:47:51.256Z,22.15
2018-02-06T06:48:57.001Z,20.83
2018-02-06T06:50:02.496Z,26.42
2018-02-06T06:51:08.214Z,25.37
2018-02-06T06:52:14.388Z,21.60
2018-02-06T06:53:20.109Z,25.35
2018-02-06T06:54:25.820Z,27.33
2018-02-06T06:55:32.308Z,22.98
2018-02-06T06:56:38.030Z,21.70
2018-02-06T06:57:44.536Z,22.80
2018-02-06T06:58:50.252Z,24.25
2018-02-06T06:59:56.089Z,20.20
2018-02-06T07:01:01.809Z,25.88
2018-02-06T07:02:08.291Z,22.77
2018-02-06T07:03:14.053Z,23.08
2018-02-06T07:04:19.789Z,18.62
2018-02-06T07:05:25.510Z,25.90
2018-02-06T07:06:31.248Z,19.98
2018-02-06T07:07:36.985Z,21.33
2018-02-06T07:08:42.740Z,23.12
2018-02-06T07:09:48.469Z,24.33
2018-02-06T07:10:54.196Z,20.17
2018-02-06T07:12:00.693Z,23.08
2018-02-06T07:13:06.404Z,26.90
2018-02-06T07:14:12.921Z,19.33
2018-02-06T07:15:18.628Z,25.62
2018-02-06T07:16:24.376Z,25.48
2018-02-06T07:17:30.148Z,23.77
2018-02-06T07:18:36.090Z,23.40
2018-02-06T07:19:41.825Z,27.77
2018-02-06T07:20:47.549Z,22.08
2018-02-06T07:21:53.270Z,25.75
2018-02-06T07:22:58.992Z,25.50
2018-02-06T07:24:04.718Z,25.08
2018-02-06T07:25:10.479Z,23.40
2018-02-06T07:26:16.964Z,23.55
2018-02-06T07:27:22.675Z,28.67
2018-02-06T07:28:29.162Z,26.90
2018-02-06T07:29:34.898Z,20.02
2018-02-06T07:30:40.921Z,21.33
2018-02-06T07:31:47.229Z,24.48
2018-02-06T07:32:53.615Z,19.45
2018-02-06T07:34:00.220Z,23.80
2018-02-06T07:35:06.060Z,21.30
2018-02-06T07:36:11.837Z,19.20
2018-02-06T07:37:17.647Z,22.08
2018-02-06T07:38:23.395Z,21.50
2018-02-06T07:39:29.943Z,19.25
2018-02-06T07:40:35.668Z,20.95
2018-02-06T07:41:41.427Z,18.00
2018-02-06T07:42:47.141Z,24.05
2018-02-06T07:43:53.620Z,25.83
2018-02-06T07:44:59.342Z,23.23
2018-02-06T07:46:05.824Z,26.27
2018-02-06T07:47:11.567Z,18.90
2018-02-06T07:48:17.283Z,28.20
2018-02-06T07:49:23.771Z,22.77
2018-02-06T07:50:29.488Z,24.65
2018-02-06T07:51:35.980Z,22.25
2018-02-06T07:52:41.745Z,20.70
2018-02-06T07:53:47.280Z,20.17
2018-02-06T07:54:53.011Z,26.37
2018-02-06T07:55:58.795Z,24.33
2018-02-06T07:57:04.508Z,30.48
2018-02-06T07:58:10.263Z,18.80
2018-02-06T07:59:17.492Z,22.37
2018-02-06T08:00:23.574Z,26.45
2018-02-06T08:01:29.304Z,23.98
2018-02-06T08:02:35.080Z,23.83
2018-02-06T08:03:41.568Z,23.85
2018-02-06T08:04:47.369Z,22.25
2018-02-06T08:05:53.851Z,23.83
2018-02-06T08:06:59.582Z,22.80
2018-02-06T08:08:05.305Z,24.10
2018-02-06T08:09:11.825Z,22.98
2018-02-06T08:10:17.537Z,23.50
2018-02-06T08:11:24.026Z,26.55
2018-02-06T08:12:30.163Z,22.10
2018-02-06T08:13:36.312Z,23.67
2018-02-06T08:14:42.053Z,27.02
2018-02-06T08:15:47.772Z,22.45
2018-02-06T08:16:53.543Z,28.40
2018-02-06T08:17:59.253Z,18.75
2018-02-06T08:19:05.735Z,23.60
2018-02-06T08:20:12.253Z,22.48
2018-02-06T08:21:18.036Z,22.37
2018-02-06T08:22:23.751Z,29.15
2018-02-06T08:23:30.244Z,21.67
2018-02-06T08:24:36.167Z,21.27
2018-02-06T08:25:41.929Z,20.58
2018-02-06T08:26:47.648Z,21.08
2018-02-06T08:27:54.156Z,20.92
2018-02-06T08:28:59.876Z,21.70
2018-02-06T08:30:05.598Z,20.40
2018-02-06T08:31:11.370Z,21.60
2018-02-06T08:32:17.289Z,22.55
2018-02-06T08:33:23.009Z,20.37
2018-02-06T08:34:29.496Z,19.70
2018-02-06T08:35:36.307Z,20.17
2018-02-06T08:36:42.898Z,23.85
2018-02-06T08:37:49.408Z,20.85
2018-02-06T08:38:55.127Z,20.33
2018-02-06T08:40:00.864Z,18.23
2018-02-06T08:41:06.580Z,21.17
2018-02-06T08:42:13.111Z,20.98
2018-02-06T08:43:18.823Z,19.37
2018-02-06T08:44:24.546Z,19.00
2018-02-06T08:45:30.276Z,17.02
2018-02-06T08:46:35.994Z,18.95
2018-02-06T08:47:42.493Z,16.77
2018-02-06T08:48:48.367Z,16.33
2018-02-06T08:49:54.072Z,20.48
2018-02-06T08:50:59.783Z,23.95
2018-02-06T08:52:06.328Z,18.12
2018-02-06T08:53:12.082Z,19.48
2018-02-06T08:54:18.561Z,17.52
2018-02-06T08:55:24.289Z,20.05
2018-02-06T08:56:30.757Z,19.62
2018-02-06T08:57:36.712Z,18.27
2018-02-06T08:58:42.456Z,18.65
2018-02-06T08:59:48.162Z,18.23
2018-02-06T09:00:54.733Z,18.35
2018-02-06T09:02:01.224Z,16.08
2018-02-06T09:03:06.951Z,18.20
2018-02-06T09:04:12.681Z,17.02
2018-02-06T09:05:18.396Z,17.37
2018-02-06T09:06:24.990Z,16.30
2018-02-06T09:07:30.746Z,18.60
2018-02-06T09:08:36.716Z,17.25
2018-02-06T09:09:42.494Z,17.87
2018-02-06T09:10:48.194Z,20.37
2018-02-06T09:11:53.987Z,16.92
2018-02-06T09:13:01.276Z,19.30
2018-02-06T09:14:06.999Z,19.33
2018-02-06T09:15:13.516Z,16.73
2018-02-06T09:16:19.235Z,17.00
2018-02-06T09:17:25.004Z,15.27
2018-02-06T09:18:30.805Z,15.88
2018-02-06T09:19:36.549Z,16.25
2018-02-06T09:20:42.285Z,14.63
2018-02-06T09:21:48.024Z,14.87
2018-02-06T09:22:53.744Z,19.35
2018-02-06T09:24:00.240Z,14.98
2018-02-06T09:25:05.943Z,16.42
2018-02-06T09:26:12.489Z,19.77
2018-02-06T09:27:18.200Z,18.55
2018-02-06T09:28:23.926Z,17.98
2018-02-06T09:29:29.636Z,18.45
2018-02-06T09:30:35.585Z,15.55
2018-02-06T09:31:41.156Z,27.77
2018-02-06T09:32:46.869Z,18.12
2018-02-06T09:33:52.571Z,18.05
2018-02-06T09:34:58.281Z,16.15
2018-02-06T09:36:03.989Z,14.77
2018-02-06T09:37:09.733Z,14.95
2018-02-06T09:38:15.475Z,20.42
2018-02-06T09:39:21.209Z,14.70
2018-02-06T09:40:26.956Z,17.12
2018-02-06T09:41:32.655Z,14.32
2018-02-06T09:42:38.434Z,14.98
2018-02-06T09:43:44.153Z,15.65
2018-02-06T09:44:50.632Z,15.80
2018-02-06T09:45:56.348Z,17.17
2018-02-06T09:47:02.897Z,14.43
2018-02-06T09:48:08.734Z,13.15
2018-02-06T09:49:14.432Z,16.42
2018-02-06T09:50:20.155Z,16.95
2018-02-06T09:51:26.654Z,14.05
2018-02-06T09:52:32.575Z,16.45
2018-02-06T09:53:38.306Z,13.95
2018-02-06T09:54:44.020Z,15.23
2018-02-06T09:55:50.559Z,21.05
2018-02-06T09:56:56.256Z,11.00
2018-02-06T09:58:01.782Z,13.60
2018-02-06T09:59:07.517Z,16.30
2018-02-06T10:00:13.226Z,16.85
2018-02-06T10:01:19.118Z,17.50
2018-02-06T10:02:24.819Z,15.73
2018-02-06T10:03:31.330Z,15.32
2018-02-06T10:04:37.045Z,16.35
2018-02-06T10:05:42.793Z,19.27
2018-02-06T10:06:48.529Z,15.05
2018-02-06T10:07:54.377Z,15.13
2018-02-06T10:09:00.067Z,15.18
2018-02-06T10:10:05.619Z,17.87
2018-02-06T10:11:12.087Z,17.77
2018-02-06T10:12:18.563Z,13.05
2018-02-06T10:13:24.415Z,18.62
2018-02-06T10:14:30.149Z,17.83
2018-02-06T10:15:35.881Z,16.75
2018-02-06T10:16:41.588Z,16.15
2018-02-06T10:17:47.323Z,18.98
2018-02-06T10:18:53.029Z,16.77
2018-02-06T10:19:58.752Z,17.15
2018-02-06T10:21:04.475Z,15.27
2018-02-06T10:22:10.953Z,21.05
2018-02-06T10:23:16.666Z,16.80
2018-02-06T10:24:23.153Z,18.05
2018-02-06T10:25:28.897Z,16.80
2018-02-06T10:26:34.619Z,16.58
2018-02-06T10:27:41.100Z,15.70
2018-02-06T10:28:46.835Z,15.30
2018-02-06T10:29:52.547Z,15.90
2018-02-06T10:30:59.033Z,16.62
2018-02-06T10:32:04.780Z,18.05
2018-02-06T10:33:10.494Z,20.17
2018-02-06T10:34:16.979Z,16.50
2018-02-06T10:35:22.359Z,20.40
2018-02-06T10:36:28.276Z,19.02
2018-02-06T10:37:34.002Z,16.45
2018-02-06T10:38:39.531Z,18.87
2018-02-06T10:39:45.261Z,17.45
2018-02-06T10:40:51.013Z,15.75
2018-02-06T10:41:56.752Z,16.45
2018-02-06T10:43:02.839Z,22.33
2018-02-06T10:44:08.552Z,19.30
2018-02-06T10:45:14.264Z,16.70
2018-02-06T10:46:20.744Z,21.98
2018-02-06T10:47:26.495Z,21.20
2018-02-06T10:48:32.243Z,18.95
2018-02-06T10:49:37.954Z,20.88
2018-02-06T10:50:43.705Z,18.17
2018-02-06T10:51:49.108Z,20.58
2018-02-06T10:52:55.620Z,19.62
2018-02-06T10:54:01.387Z,18.05
2018-02-06T10:55:07.102Z,20.55
2018-02-06T10:56:12.821Z,42.35
2018-02-06T10:57:18.545Z,22.05
2018-02-06T10:58:25.028Z,20.95
2018-02-06T10:59:30.762Z,22.65
2018-02-06T11:00:36.473Z,20.92
2018-02-06T11:01:42.975Z,15.70
2018-02-06T11:02:48.679Z,20.08
2018-02-06T11:03:55.166Z,18.60
2018-02-06T11:05:00.906Z,21.75
2018-02-06T11:06:06.615Z,14.65
2018-02-06T11:07:13.083Z,18.35
2018-02-06T11:08:18.838Z,17.42
2018-02-06T11:09:24.556Z,19.17
2018-02-06T11:10:30.308Z,18.60
2018-02-06T11:11:36.773Z,25.75
2018-02-06T11:12:43.360Z,17.52
2018-02-06T11:13:48.743Z,23.73
2018-02-06T11:14:55.215Z,18.87
2018-02-06T11:16:00.956Z,20.58
2018-02-06T11:17:07.439Z,19.60
2018-02-06T11:18:12.965Z,21.87
2018-02-06T11:19:18.667Z,20.70
2018-02-06T11:20:25.168Z,21.27
2018-02-06T11:21:30.889Z,21.77
2018-02-06T11:22:37.360Z,22.13
2018-02-06T11:23:43.151Z,21.60
2018-02-06T11:24:48.855Z,22.95
2018-02-06T11:25:54.573Z,16.90
2018-02-06T11:27:01.085Z,24.42
2018-02-06T11:28:06.794Z,22.55
2018-02-06T11:29:12.511Z,19.00
2018-02-06T11:30:18.984Z,19.42
2018-02-06T11:31:24.687Z,23.55
2018-02-06T11:32:30.433Z,22.17
2018-02-06T11:33:36.143Z,19.77
2018-02-06T11:34:41.844Z,21.10
2018-02-06T11:35:47.555Z,20.35
2018-02-06T11:36:54.033Z,15.25
2018-02-06T11:37:59.763Z,19.42
2018-02-06T11:39:05.378Z,17.77
2018-02-06T11:40:11.080Z,18.48
2018-02-06T11:41:16.818Z,19.02
2018-02-06T11:42:22.523Z,15.65
2018-02-06T11:43:29.051Z,18.42
2018-02-06T11:44:34.794Z,32.30
2018-02-06T11:45:40.682Z,43.10
2018-02-06T11:46:47.146Z,20.95
2018-02-06T11:47:52.888Z,18.67
2018-02-06T11:48:58.634Z,14.65
2018-02-06T11:50:04.560Z,17.92
2018-02-06T11:51:10.531Z,17.80
2018-02-06T11:52:16.240Z,14.57
2018-02-06T11:53:23.519Z,19.92
2018-02-06T11:54:30.011Z,37.92
2018-02-06T11:55:35.832Z,33.10
2018-02-06T11:56:41.578Z,21.87
2018-02-06T11:57:47.586Z,17.27
2018-02-06T11:58:53.340Z,25.58
2018-02-06T11:59:59.936Z,38.67
2018-02-06T12:01:05.647Z,17.73
2018-02-06T12:02:12.138Z,22.73
2018-02-06T12:03:17.976Z,27.50
2018-02-06T12:04:23.999Z,19.77
2018-02-06T12:05:30.527Z,30.90
2018-02-06T12:06:36.236Z,42.90
2018-02-06T12:07:42.068Z,84.18
2018-02-06T12:08:47.967Z,22.55
2018-02-06T12:09:53.766Z,33.45
2018-02-06T12:11:00.391Z,30.20
2018-02-06T12:12:06.273Z,21.40
2018-02-06T12:13:12.086Z,20.60
2018-02-06T12:14:18.876Z,18.87
2018-02-06T12:15:24.816Z,20.25
2018-02-06T12:16:31.653Z,25.52
2018-02-06T12:17:38.248Z,17.83
2018-02-06T12:18:43.973Z,18.58
2018-02-06T12:19:49.515Z,16.65
2018-02-06T12:20:56.245Z,18.52
2018-02-06T12:22:02.043Z,21.17
2018-02-06T12:23:07.955Z,22.65
2018-02-06T12:24:14.469Z,18.35
2018-02-06T12:25:20.305Z,14.80
2018-02-06T12:26:26.094Z,20.45
2018-02-06T12:27:31.891Z,15.75
2018-02-06T12:28:37.827Z,16.27
2018-02-06T12:29:43.588Z,18.35
2018-02-06T12:30:49.309Z,18.75
2018-02-06T12:31:55.152Z,18.58
2018-02-06T12:33:01.192Z,23.35
2018-02-06T12:34:06.911Z,13.45
2018-02-06T12:35:13.385Z,16.33
2018-02-06T12:36:19.238Z,18.67
2018-02-06T12:37:25.091Z,19.48
2018-02-06T12:38:30.888Z,17.52
2018-02-06T12:39:37.045Z,24.02
2018-02-06T12:40:42.764Z,19.65
2018-02-06T12:41:48.588Z,24.65
2018-02-06T12:42:55.022Z,19.25
2018-02-06T12:44:01.052Z,20.50
2018-02-06T12:45:07.773Z,16.60
2018-02-06T12:46:13.641Z,20.95
2018-02-06T12:47:19.419Z,21.30
2018-02-06T12:48:25.772Z,13.45
2018-02-06T12:49:31.926Z,16.20
2018-02-06T12:50:37.965Z,20.62
2018-02-06T12:51:44.533Z,22.20
2018-02-06T12:52:49.980Z,17.70
2018-02-06T12:53:56.015Z,20.52
2018-02-06T12:55:01.759Z,15.98
2018-02-06T12:56:07.613Z,18.83
2018-02-06T12:57:13.342Z,16.90
2018-02-06T12:58:19.094Z,22.33
2018-02-06T12:59:25.952Z,16.80
2018-02-06T13:00:32.547Z,19.35
2018-02-06T13:01:38.417Z,19.15
2018-02-06T13:02:45.083Z,19.95
2018-02-06T13:03:50.867Z,17.65
2018-02-06T13:04:56.877Z,19.15
2018-02-06T13:06:03.384Z,12.40
2018-02-06T13:07:09.229Z,22.02
2018-02-06T13:08:15.157Z,18.90
2018-02-06T13:09:20.659Z,20.35
2018-02-06T13:10:27.256Z,21.37
2018-02-06T13:11:33.005Z,19.05
2018-02-06T13:12:38.714Z,21.12
2018-02-06T13:13:47.413Z,16.45
2018-02-06T13:14:53.744Z,15.52
2018-02-06T13:15:59.706Z,15.93
2018-02-06T13:17:06.531Z,15.52
2018-02-06T13:18:13.424Z,19.35
2018-02-06T13:19:19.174Z,23.83
2018-02-06T13:20:25.683Z,17.45
2018-02-06T13:21:31.805Z,17.67
2018-02-06T13:22:38.493Z,23.42
2018-02-06T13:23:45.095Z,21.70
2018-02-06T13:24:51.424Z,18.48
2018-02-06T13:25:57.172Z,19.48
2018-02-06T13:27:02.968Z,17.67
2018-02-06T13:28:08.938Z,17.58
2018-02-06T13:29:14.743Z,17.17
2018-02-06T13:30:21.598Z,22.13
2018-02-06T13:31:28.109Z,15.68
2018-02-06T13:32:34.259Z,15.23
2018-02-06T13:33:41.015Z,10.95
2018-02-06T13:34:46.740Z,16.37
2018-02-06T13:35:53.244Z,21.42
2018-02-06T13:37:00.961Z,18.05
2018-02-06T13:38:07.165Z,18.30
2018-02-06T13:39:13.234Z,15.57
2018-02-06T13:40:20.751Z,20.12
2018-02-06T13:41:27.668Z,15.55
2018-02-06T13:42:33.435Z,16.85
2018-02-06T13:43:39.201Z,18.50
2018-02-06T13:44:45.732Z,21.52
2018-02-06T13:45:51.738Z,18.02
2018-02-06T13:46:58.209Z,14.38
2018-02-06T13:48:03.995Z,19.45
2018-02-06T13:49:09.997Z,20.30
2018-02-06T13:50:15.748Z,15.32
2018-02-06T13:51:22.076Z,20.37
2018-02-06T13:52:29.161Z,18.00
2018-02-06T13:53:36.105Z,14.73
2018-02-06T13:54:42.904Z,20.90
2018-02-06T13:55:48.745Z,14.77
2018-02-06T13:56:54.457Z,20.33
2018-02-06T13:58:01.150Z,15.52
2018-02-06T13:59:06.857Z,18.80
2018-02-06T14:00:13.345Z,17.12
2018-02-06T14:01:18.892Z,17.20
2018-02-06T14:02:24.601Z,22.50
2018-02-06T14:03:31.114Z,18.35
2018-02-06T14:04:36.890Z,19.35
2018-02-06T14:05:42.605Z,16.27
2018-02-06T14:06:48.361Z,16.87
2018-02-06T14:07:54.093Z,22.42
2018-02-06T14:08:59.845Z,19.25
2018-02-06T14:10:05.560Z,19.83
2018-02-06T14:11:11.285Z,20.55
2018-02-06T14:12:17.077Z,14.57
2018-02-06T14:13:22.822Z,17.17
2018-02-06T14:14:28.545Z,21.40
2018-02-06T14:15:34.407Z,22.75
2018-02-06T14:16:41.069Z,22.20
2018-02-06T14:17:46.802Z,24.87
2018-02-06T14:18:52.669Z,26.52
2018-02-06T14:19:59.160Z,24.83
2018-02-06T14:21:05.782Z,21.17
2018-02-06T14:22:12.996Z,24.85
2018-02-06T14:23:18.742Z,20.88
2018-02-06T14:24:24.450Z,21.75
2018-02-06T14:25:31.600Z,24.37
2018-02-06T14:26:37.322Z,23.90
2018-02-06T14:27:43.104Z,20.00
2018-02-06T14:28:49.890Z,19.42
2018-02-06T14:29:55.668Z,17.65
2018-02-06T14:31:01.411Z,21.73
2018-02-06T14:32:07.165Z,22.73
2018-02-06T14:33:12.899Z,24.20
2018-02-06T14:34:18.656Z,22.30
2018-02-06T14:35:25.155Z,20.95
2018-02-06T14:36:30.910Z,23.58
2018-02-06T14:37:36.645Z,21.62
2018-02-06T14:38:42.105Z,24.63
2018-02-06T14:39:47.931Z,23.52
2018-02-06T14:40:53.700Z,21.40
2018-02-06T14:42:00.563Z,27.35
2018-02-06T14:43:06.285Z,22.83
2018-02-06T14:44:12.729Z,26.20
2018-02-06T14:45:18.464Z,24.63
2018-02-06T14:46:24.410Z,26.73
2018-02-06T14:47:30.166Z,26.05
2018-02-06T14:48:35.993Z,25.98
2018-02-06T14:49:41.842Z,22.10
2018-02-06T14:50:47.600Z,22.52
2018-02-06T14:51:53.364Z,24.87
2018-02-06T14:52:59.922Z,27.83
2018-02-06T14:54:05.636Z,23.52
2018-02-06T14:55:11.450Z,20.00
2018-02-06T14:56:17.295Z,27.00
2018-02-06T14:57:23.128Z,20.80
2018-02-06T14:58:29.888Z,25.55
2018-02-06T14:59:36.479Z,26.95
2018-02-06T15:00:41.915Z,22.17
2018-02-06T15:01:48.638Z,28.40
2018-02-06T15:02:56.234Z,25.15
2018-02-06T15:04:02.532Z,24.80
2018-02-06T15:05:08.454Z,24.80
2018-02-06T15:06:15.127Z,24.67
2018-02-06T15:07:20.879Z,25.52
2018-02-06T15:08:26.809Z,24.42
2018-02-06T15:09:32.639Z,23.33
2018-02-06T15:10:40.088Z,22.92
2018-02-06T15:11:45.875Z,26.40
2018-02-06T15:12:52.819Z,27.83
2018-02-06T15:13:59.354Z,25.23
2018-02-06T15:15:04.990Z,25.67
2018-02-06T15:16:10.949Z,25.08
2018-02-06T15:17:18.369Z,19.37
2018-02-06T15:18:25.490Z,22.70
2018-02-06T15:19:31.510Z,24.37
2018-02-06T15:20:37.409Z,22.87
2018-02-06T15:21:43.763Z,24.65
2018-02-06T15:22:50.261Z,21.33
2018-02-06T15:23:56.981Z,23.85
2018-02-06T15:25:03.778Z,27.70
2018-02-06T15:26:10.136Z,21.48
2018-02-06T15:27:16.809Z,27.83
2018-02-06T15:28:22.805Z,24.98
2018-02-06T15:29:28.602Z,23.65
2018-02-06T15:30:35.351Z,24.12
2018-02-06T15:31:41.296Z,28.73
2018-02-06T15:32:47.213Z,21.98
2018-02-06T15:33:53.898Z,25.10
2018-02-06T15:35:04.626Z,24.95
2018-02-06T15:36:12.180Z,22.17
2018-02-06T15:37:19.963Z,24.08
2018-02-06T15:38:26.699Z,22.02
2018-02-06T15:39:32.849Z,22.67
2018-02-06T15:40:39.413Z,24.30
2018-02-06T15:41:48.198Z,25.00
2018-02-06T15:42:55.527Z,26.73
2018-02-06T15:44:01.450Z,24.90
2018-02-06T15:45:07.281Z,26.85
2018-02-06T15:46:12.931Z,21.55
2018-02-06T15:47:19.536Z,27.35
2018-02-06T15:48:25.305Z,25.30
2018-02-06T15:49:32.828Z,30.37
2018-02-06T15:50:38.585Z,22.30
2018-02-06T15:51:44.336Z,25.27
2018-02-06T15:52:50.047Z,26.70
2018-02-06T15:53:55.915Z,21.42
2018-02-06T15:55:02.615Z,21.30
2018-02-06T15:56:08.320Z,24.90
2018-02-06T15:57:14.069Z,23.02
2018-02-06T15:58:20.594Z,26.02
2018-02-06T15:59:26.294Z,24.85
2018-02-06T16:00:33.792Z,22.80
2018-02-06T16:01:40.112Z,24.58
2018-02-06T16:02:46.017Z,25.37
2018-02-06T16:03:51.837Z,25.95
2018-02-06T16:04:58.618Z,26.40
2018-02-06T16:06:05.074Z,30.15
2018-02-06T16:07:11.248Z,32.70
2018-02-06T16:08:17.377Z,29.42